createdAt,value
2022-12-31T00:01:49.543Z,0.50
2022-12-31T00:04:20.514Z,1.23
2022-12-31T00:06:50.193Z,0.90
2022-12-31T00:09:19.715Z,0.60
2022-12-31T00:11:49.640Z,0.87
2022-12-31T00:14:19.161Z,0.90
2022-12-31T00:16:48.679Z,0.70
2022-12-31T00:19:18.186Z,0.93
2022-12-31T00:21:49.018Z,0.73
2022-12-31T00:24:18.528Z,1.20
2022-12-31T00:26:48.578Z,0.83
2022-12-31T00:29:18.080Z,1.00
2022-12-31T00:31:47.583Z,1.00
2022-12-31T00:34:17.071Z,1.20
2022-12-31T00:36:47.111Z,0.93
2022-12-31T00:39:18.113Z,0.87
2022-12-31T00:41:47.651Z,1.30
2022-12-31T00:44:17.152Z,0.90
2022-12-31T00:46:46.651Z,0.83
2022-12-31T00:49:16.326Z,0.80
2022-12-31T00:51:46.798Z,0.70
2022-12-31T00:54:17.790Z,1.40
2022-12-31T00:56:47.367Z,0.90
2022-12-31T00:59:17.705Z,0.60
2022-12-31T01:01:47.277Z,0.60
2022-12-31T01:04:19.256Z,0.60
2022-12-31T01:06:49.007Z,0.87
2022-12-31T01:09:20.095Z,0.83
2022-12-31T01:11:51.783Z,1.10
2022-12-31T01:14:21.649Z,0.93
2022-12-31T01:16:52.162Z,0.77
2022-12-31T01:19:23.169Z,0.80
2022-12-31T01:21:53.235Z,0.50
2022-12-31T01:24:24.155Z,0.73
2022-12-31T01:26:57.669Z,1.10
2022-12-31T01:29:29.656Z,1.63
2022-12-31T01:31:59.151Z,0.50
2022-12-31T01:34:29.066Z,0.80
2022-12-31T01:36:58.571Z,0.60
2022-12-31T01:39:29.478Z,0.67
2022-12-31T01:41:59.953Z,1.27
2022-12-31T01:44:48.932Z,1.13
2022-12-31T01:47:20.810Z,1.20
2022-12-31T01:49:51.902Z,0.80
2022-12-31T01:52:22.932Z,0.67
2022-12-31T01:54:55.827Z,0.70
2022-12-31T01:57:25.843Z,1.17
2022-12-31T01:59:56.342Z,0.50
2022-12-31T02:02:26.105Z,0.87
2022-12-31T02:04:57.509Z,0.57
2022-12-31T02:07:27.098Z,0.60
2022-12-31T02:09:57.977Z,0.60
2022-12-31T02:12:27.611Z,0.80
2022-12-31T02:14:57.297Z,0.97
2022-12-31T02:17:30.583Z,0.80
2022-12-31T02:20:21.341Z,1.00
2022-12-31T02:23:03.487Z,0.63
2022-12-31T02:25:39.876Z,0.73
2022-12-31T02:28:18.046Z,1.20
2022-12-31T02:30:49.895Z,0.80
2022-12-31T02:33:22.108Z,0.97
2022-12-31T02:35:54.353Z,1.07
2022-12-31T02:38:25.400Z,0.80
2022-12-31T02:40:55.150Z,0.67
2022-12-31T02:43:24.663Z,0.37
2022-12-31T02:45:58.465Z,0.90
2022-12-31T02:48:37.755Z,0.80
2022-12-31T02:51:13.779Z,0.73
2022-12-31T02:53:53.971Z,0.40
2022-12-31T02:56:26.299Z,0.50
2022-12-31T02:59:18.857Z,0.60
2022-12-31T03:02:10.116Z,0.93
2022-12-31T03:04:39.821Z,0.87
2022-12-31T03:07:10.515Z,0.97
2022-12-31T03:09:40.474Z,0.60
2022-12-31T03:12:28.981Z,0.93
2022-12-31T03:14:58.465Z,0.47
2022-12-31T03:17:29.333Z,1.00
2022-12-31T03:20:16.426Z,0.60
2022-12-31T03:22:46.087Z,0.60
2022-12-31T03:25:34.497Z,1.40
2022-12-31T03:28:04.637Z,0.50
2022-12-31T03:30:34.781Z,0.77
2022-12-31T03:33:05.975Z,0.70
2022-12-31T03:35:36.322Z,1.20
2022-12-31T03:38:05.910Z,0.50
2022-12-31T03:40:38.722Z,0.50
2022-12-31T03:43:08.369Z,0.50
2022-12-31T03:45:38.486Z,0.53
2022-12-31T03:48:10.636Z,0.70
2022-12-31T03:50:40.126Z,0.60
2022-12-31T03:53:09.733Z,1.53
2022-12-31T03:55:39.447Z,1.00
2022-12-31T03:58:08.991Z,0.50
2022-12-31T04:00:38.690Z,1.13
2022-12-31T04:03:10.377Z,0.30
2022-12-31T04:05:40.371Z,0.90
2022-12-31T04:08:09.869Z,0.97
2022-12-31T04:10:39.363Z,0.70
2022-12-31T04:13:08.861Z,1.07
2022-12-31T04:15:38.312Z,0.50
2022-12-31T04:18:07.781Z,0.73
2022-12-31T04:20:38.916Z,0.60
2022-12-31T04:23:08.421Z,0.63
2022-12-31T04:25:37.903Z,0.50
2022-12-31T04:28:07.367Z,1.40
2022-12-31T04:30:36.872Z,0.67
2022-12-31T04:33:06.363Z,0.40
2022-12-31T04:35:35.897Z,0.93
2022-12-31T04:38:06.788Z,0.97
2022-12-31T04:40:56.290Z,0.80
2022-12-31T04:43:26.287Z,0.83
2022-12-31T04:45:55.781Z,0.33
2022-12-31T04:48:25.252Z,0.93
2022-12-31T04:50:54.746Z,0.80
2022-12-31T04:53:25.628Z,0.50
2022-12-31T04:55:56.449Z,0.70
2022-12-31T04:58:25.954Z,0.30
2022-12-31T05:00:56.599Z,0.40
2022-12-31T05:03:27.013Z,0.50
2022-12-31T05:06:01.506Z,0.43
2022-12-31T05:08:32.808Z,0.70
2022-12-31T05:11:02.715Z,0.30
2022-12-31T05:13:33.502Z,0.40
2022-12-31T05:16:03.665Z,0.50
2022-12-31T05:18:33.532Z,1.33
2022-12-31T05:21:03.331Z,0.70
2022-12-31T05:23:34.227Z,0.50
2022-12-31T05:26:03.691Z,0.87
2022-12-31T05:28:33.597Z,0.53
2022-12-31T05:31:03.132Z,0.53
2022-12-31T05:33:32.740Z,0.80
2022-12-31T05:36:02.248Z,0.60
2022-12-31T05:38:31.776Z,0.50
2022-12-31T05:41:03.233Z,0.80
2022-12-31T05:43:33.319Z,0.40
2022-12-31T05:46:03.037Z,1.80
2022-12-31T05:48:32.772Z,0.30
2022-12-31T05:51:02.272Z,0.50
2022-12-31T05:53:31.763Z,0.50
2022-12-31T05:56:01.273Z,0.87
2022-12-31T05:58:32.142Z,0.57
2022-12-31T06:01:02.030Z,0.60
2022-12-31T06:03:31.694Z,0.37
2022-12-31T06:06:02.897Z,0.60
2022-12-31T06:08:32.376Z,0.50
2022-12-31T06:11:01.867Z,0.40
2022-12-31T06:13:33.160Z,0.80
2022-12-31T06:16:06.526Z,0.90
2022-12-31T06:18:36.024Z,0.47
2022-12-31T06:21:05.789Z,0.77
2022-12-31T06:23:35.247Z,0.40
2022-12-31T06:26:04.742Z,0.83
2022-12-31T06:28:35.658Z,0.40
2022-12-31T06:31:05.804Z,0.67
2022-12-31T06:33:35.703Z,0.87
2022-12-31T06:36:06.469Z,0.67
2022-12-31T06:38:36.791Z,0.53
2022-12-31T06:41:06.662Z,0.73
2022-12-31T06:43:37.786Z,0.50
2022-12-31T06:46:08.308Z,0.80
2022-12-31T06:48:38.116Z,0.80
2022-12-31T06:51:13.448Z,0.50
2022-12-31T06:53:46.836Z,0.60
2022-12-31T06:56:17.605Z,0.70
2022-12-31T06:58:49.110Z,0.80
2022-12-31T07:01:36.351Z,0.50
2022-12-31T07:04:13.305Z,0.50
2022-12-31T07:06:45.319Z,0.57
2022-12-31T07:09:18.229Z,0.87
2022-12-31T07:11:53.232Z,0.63
2022-12-31T07:14:30.626Z,0.90
2022-12-31T07:17:07.865Z,0.70
2022-12-31T07:19:44.967Z,0.33
2022-12-31T07:22:15.934Z,0.50
2022-12-31T07:24:45.883Z,0.73
2022-12-31T07:27:23.229Z,0.80
2022-12-31T07:30:00.970Z,0.77
2022-12-31T07:32:37.591Z,0.77
2022-12-31T07:35:23.844Z,0.40
2022-12-31T07:37:57.318Z,0.83
2022-12-31T07:40:32.075Z,0.70
2022-12-31T07:43:06.300Z,0.43
2022-12-31T07:45:40.848Z,0.80
2022-12-31T07:48:16.132Z,1.00
2022-12-31T07:50:45.898Z,0.60
2022-12-31T07:53:15.568Z,0.83
2022-12-31T07:55:45.199Z,1.17
2022-12-31T07:58:23.445Z,0.43
2022-12-31T08:00:55.023Z,1.03
2022-12-31T08:03:31.220Z,0.77
2022-12-31T08:06:09.813Z,0.40
2022-12-31T08:08:46.654Z,1.10
2022-12-31T08:11:20.603Z,0.60
2022-12-31T08:13:52.765Z,0.77
2022-12-31T08:16:24.016Z,0.57
2022-12-31T08:18:53.799Z,0.40
2022-12-31T08:21:32.705Z,0.67
2022-12-31T08:24:08.899Z,1.03
2022-12-31T08:26:39.676Z,1.20
2022-12-31T08:29:16.974Z,0.60
2022-12-31T08:31:50.622Z,0.53
2022-12-31T08:34:26.544Z,0.70
2022-12-31T08:37:00.088Z,0.63
2022-12-31T08:39:36.543Z,0.60
2022-12-31T08:42:07.614Z,0.60
2022-12-31T08:44:41.401Z,0.70
2022-12-31T08:47:18.446Z,0.53
2022-12-31T08:49:48.160Z,0.43
2022-12-31T08:52:20.720Z,0.40
2022-12-31T08:54:50.438Z,0.57
2022-12-31T08:57:23.101Z,0.73
2022-12-31T08:59:56.952Z,0.80
2022-12-31T09:02:46.184Z,0.87
2022-12-31T09:05:20.255Z,0.50
2022-12-31T09:07:52.859Z,0.60
2022-12-31T09:10:24.791Z,0.47
2022-12-31T09:13:01.002Z,0.80
2022-12-31T09:15:33.781Z,0.50
2022-12-31T09:18:05.030Z,0.63
2022-12-31T09:20:44.421Z,0.73
2022-12-31T09:23:14.840Z,0.67
2022-12-31T09:25:48.727Z,0.50
2022-12-31T09:28:19.758Z,0.50
2022-12-31T09:30:52.724Z,0.50
2022-12-31T09:33:28.127Z,0.43
2022-12-31T09:35:59.615Z,0.50
2022-12-31T09:38:32.805Z,0.40
2022-12-31T09:41:10.606Z,0.50
2022-12-31T09:44:01.639Z,0.70
2022-12-31T09:47:02.141Z,1.27
2022-12-31T09:49:53.110Z,0.43
2022-12-31T09:52:27.072Z,0.60
2022-12-31T09:55:02.933Z,0.40
2022-12-31T09:57:37.743Z,0.40
2022-12-31T10:00:12.073Z,0.30
2022-12-31T10:02:56.681Z,0.33
2022-12-31T10:05:52.079Z,0.47
2022-12-31T10:08:31.349Z,0.40
2022-12-31T10:11:04.062Z,0.40
2022-12-31T10:13:40.832Z,0.40
2022-12-31T10:16:26.855Z,0.50
2022-12-31T10:19:15.323Z,0.30
2022-12-31T10:21:50.703Z,0.40
2022-12-31T10:24:36.075Z,0.60
2022-12-31T10:27:22.563Z,0.50
2022-12-31T10:29:57.863Z,0.67
2022-12-31T10:32:31.687Z,0.20
2022-12-31T10:35:03.496Z,0.40
2022-12-31T10:37:38.329Z,0.33
2022-12-31T10:40:17.628Z,0.77
2022-12-31T10:42:57.925Z,0.30
2022-12-31T10:45:42.215Z,0.57
2022-12-31T10:48:30.475Z,0.77
2022-12-31T10:51:15.375Z,0.30
2022-12-31T10:54:02.686Z,0.40
2022-12-31T10:56:46.970Z,0.30
2022-12-31T10:59:29.184Z,0.40
2022-12-31T11:05:10.673Z,0.30
2022-12-31T11:07:54.415Z,0.30
2022-12-31T11:10:48.099Z,0.30
2022-12-31T11:13:33.861Z,0.60
2022-12-31T11:16:20.521Z,0.30
2022-12-31T11:18:55.796Z,0.40
2022-12-31T11:21:29.903Z,0.30
2022-12-31T11:24:05.158Z,0.30
2022-12-31T11:26:43.469Z,0.43
2022-12-31T11:29:30.713Z,0.30
2022-12-31T11:32:08.313Z,0.30
2022-12-31T11:34:50.317Z,0.37
2022-12-31T11:37:29.533Z,0.30
2022-12-31T11:40:04.591Z,0.40
2022-12-31T11:42:42.277Z,0.50
2022-12-31T11:45:19.372Z,0.20
2022-12-31T11:48:29.030Z,0.20
2022-12-31T11:50:50.775Z,0.30
2022-12-31T11:53:27.714Z,0.30
2022-12-31T11:56:08.937Z,0.93
2022-12-31T11:58:39.428Z,0.30
2022-12-31T12:01:13.423Z,0.30
2022-12-31T12:03:44.455Z,0.40
2022-12-31T12:06:16.987Z,0.30
2022-12-31T12:08:48.022Z,0.20
2022-12-31T12:11:23.284Z,0.30
2022-12-31T12:13:54.795Z,0.20
2022-12-31T12:16:28.117Z,0.30
2022-12-31T12:19:08.586Z,0.30
2022-12-31T12:21:47.680Z,0.30
2022-12-31T12:24:22.000Z,0.30
2022-12-31T12:26:53.314Z,0.20
2022-12-31T12:29:24.753Z,0.30
2022-12-31T12:31:59.523Z,0.20
2022-12-31T12:34:30.091Z,0.30
2022-12-31T12:36:59.683Z,0.30
2022-12-31T12:39:30.273Z,0.23
2022-12-31T12:42:03.705Z,0.30
2022-12-31T12:44:35.705Z,0.30
2022-12-31T12:47:08.089Z,0.20
2022-12-31T12:49:40.327Z,0.27
2022-12-31T12:52:25.148Z,0.30
2022-12-31T12:55:04.130Z,0.20
2022-12-31T12:57:37.166Z,0.20
2022-12-31T13:00:11.270Z,1.00
2022-12-31T13:02:53.052Z,0.30
2022-12-31T13:05:28.492Z,0.30
2022-12-31T13:08:03.853Z,0.30
2022-12-31T13:10:47.119Z,0.60
2022-12-31T13:13:25.049Z,0.43
2022-12-31T13:15:58.811Z,0.47
2022-12-31T13:18:38.937Z,0.47
2022-12-31T13:21:15.625Z,0.37
2022-12-31T13:23:50.067Z,0.80
2022-12-31T13:26:23.152Z,0.70
2022-12-31T13:28:54.066Z,0.50
2022-12-31T13:31:25.434Z,0.50
2022-12-31T13:33:58.363Z,0.57
2022-12-31T13:36:29.967Z,0.67
2022-12-31T13:39:00.955Z,0.77
2022-12-31T13:41:32.308Z,0.83
2022-12-31T13:44:06.470Z,1.00
2022-12-31T13:46:41.636Z,0.70
2022-12-31T13:49:18.793Z,0.90
2022-12-31T13:51:49.797Z,0.83
2022-12-31T13:54:30.761Z,0.83
2022-12-31T13:57:03.081Z,1.00
2022-12-31T13:59:35.895Z,1.27
2022-12-31T14:02:11.195Z,0.70
2022-12-31T14:04:44.460Z,0.60
2022-12-31T14:07:16.821Z,0.77
2022-12-31T14:09:47.560Z,0.40
2022-12-31T14:12:25.430Z,0.60
2022-12-31T14:15:00.203Z,0.60
2022-12-31T14:17:34.489Z,0.70
2022-12-31T14:20:11.956Z,1.00
2022-12-31T14:22:47.604Z,0.90
2022-12-31T14:25:20.378Z,0.50
2022-12-31T14:27:52.870Z,0.83
2022-12-31T14:30:23.450Z,1.20
2022-12-31T14:33:16.935Z,1.90
2022-12-31T14:35:55.998Z,0.70
2022-12-31T14:38:28.829Z,0.73
2022-12-31T14:41:11.917Z,1.00
2022-12-31T14:43:45.224Z,1.10
2022-12-31T14:46:22.105Z,0.87
2022-12-31T14:49:00.501Z,0.83
2022-12-31T14:51:36.578Z,0.70
2022-12-31T14:54:06.158Z,0.90
2022-12-31T14:56:42.268Z,0.80
2022-12-31T14:59:25.244Z,0.80
2022-12-31T15:01:55.192Z,0.40
2022-12-31T15:04:32.867Z,0.70
2022-12-31T15:07:09.029Z,0.60
2022-12-31T15:09:48.605Z,0.70
2022-12-31T15:12:28.525Z,0.30
2022-12-31T15:15:04.537Z,1.20
2022-12-31T15:17:39.940Z,0.90
2022-12-31T15:20:17.879Z,0.80
2022-12-31T15:22:50.059Z,0.80
2022-12-31T15:25:22.685Z,0.70
2022-12-31T15:27:52.459Z,0.70
2022-12-31T15:31:11.719Z,0.70
2022-12-31T15:33:54.994Z,0.80
2022-12-31T15:36:32.730Z,0.57
2022-12-31T15:39:08.047Z,1.17
2022-12-31T15:42:27.287Z,0.97
2022-12-31T15:44:43.730Z,0.73
2022-12-31T15:47:17.802Z,1.20
2022-12-31T15:49:48.577Z,0.43
2022-12-31T15:52:20.206Z,1.03
2022-12-31T15:54:52.328Z,0.70
2022-12-31T15:57:25.186Z,1.07
2022-12-31T15:59:59.415Z,0.60
2022-12-31T16:02:43.077Z,0.70
2022-12-31T16:05:19.577Z,1.17
2022-12-31T16:07:49.891Z,0.80
2022-12-31T16:10:23.624Z,0.70
2022-12-31T16:12:54.391Z,1.53
2022-12-31T16:15:25.115Z,1.73
2022-12-31T16:18:02.189Z,1.23
2022-12-31T16:20:34.607Z,0.40
2022-12-31T16:23:53.600Z,1.43
2022-12-31T16:26:39.294Z,1.47
2022-12-31T16:29:15.325Z,1.60
2022-12-31T16:31:45.259Z,0.97
2022-12-31T16:34:16.890Z,0.27
2022-12-31T16:36:56.225Z,0.83
2022-12-31T16:39:30.489Z,1.13
2022-12-31T16:42:10.663Z,1.83
2022-12-31T16:44:45.095Z,1.20
2022-12-31T16:47:18.666Z,1.00
2022-12-31T16:49:49.163Z,0.57
2022-12-31T16:52:29.091Z,0.73
2022-12-31T16:54:59.493Z,1.77
2022-12-31T16:57:36.529Z,2.07
2022-12-31T17:00:08.213Z,1.27
2022-12-31T17:02:59.450Z,1.20
2022-12-31T17:05:29.696Z,0.97
2022-12-31T17:08:16.272Z,0.50
2022-12-31T17:10:46.683Z,1.00
2022-12-31T17:13:28.404Z,1.40
2022-12-31T17:16:00.071Z,0.93
2022-12-31T17:18:35.977Z,1.30
2022-12-31T17:21:09.271Z,1.03
2022-12-31T17:23:41.184Z,1.37
2022-12-31T17:26:14.273Z,1.30
2022-12-31T17:28:48.062Z,0.40
2022-12-31T17:31:29.616Z,1.17
2022-12-31T17:34:08.885Z,0.90
2022-12-31T17:36:39.460Z,0.60
2022-12-31T17:39:18.676Z,1.13
2022-12-31T17:41:48.983Z,0.50
2022-12-31T17:44:21.780Z,0.67
2022-12-31T17:46:51.819Z,0.60
2022-12-31T17:49:22.800Z,0.83
2022-12-31T17:51:52.291Z,0.57
2022-12-31T17:54:21.942Z,0.63
2022-12-31T17:56:51.713Z,1.53
2022-12-31T17:59:23.798Z,0.70
2022-12-31T18:01:53.475Z,0.53
2022-12-31T18:04:23.096Z,0.83
2022-12-31T18:06:52.612Z,2.00
2022-12-31T18:09:22.149Z,0.37
2022-12-31T18:11:55.459Z,0.90
2022-12-31T18:14:27.759Z,1.00
2022-12-31T18:16:57.319Z,0.50
2022-12-31T18:20:02.737Z,1.73
2022-12-31T18:22:19.476Z,0.60
2022-12-31T18:24:50.323Z,0.80
2022-12-31T18:27:20.705Z,0.67
2022-12-31T18:29:51.582Z,0.33
2022-12-31T18:32:22.323Z,0.50
2022-12-31T18:34:52.455Z,0.67
2022-12-31T18:37:22.695Z,0.50
2022-12-31T18:39:52.222Z,0.70
2022-12-31T18:42:22.351Z,0.50
2022-12-31T18:44:53.227Z,0.90
2022-12-31T18:47:23.209Z,0.50
2022-12-31T18:49:52.805Z,0.50
2022-12-31T18:52:23.609Z,0.50
2022-12-31T18:54:53.074Z,0.40
2022-12-31T18:57:22.519Z,0.43
2022-12-31T18:59:54.815Z,0.70
2022-12-31T19:02:24.241Z,0.57
2022-12-31T19:04:53.824Z,0.50
2022-12-31T19:07:23.311Z,0.50
2022-12-31T19:09:58.080Z,0.30
2022-12-31T19:12:28.048Z,0.30
2022-12-31T19:14:59.799Z,0.30
2022-12-31T19:17:29.304Z,0.40
2022-12-31T19:20:04.202Z,0.40
2022-12-31T19:22:33.746Z,0.30
2022-12-31T19:25:03.651Z,0.30
2022-12-31T19:27:33.125Z,0.37
2022-12-31T19:30:04.039Z,0.47
2022-12-31T19:32:33.505Z,0.57
2022-12-31T19:35:03.059Z,0.40
2022-12-31T19:37:32.552Z,1.30
2022-12-31T19:40:02.117Z,1.10
2022-12-31T19:42:31.679Z,0.83
2022-12-31T19:45:01.151Z,0.40
2022-12-31T19:47:32.011Z,0.30
2022-12-31T19:50:01.515Z,0.40
2022-12-31T19:52:31.042Z,0.30
2022-12-31T19:55:00.551Z,0.30
2022-12-31T19:57:30.028Z,0.60
2022-12-31T19:59:59.494Z,0.40
2022-12-31T20:02:29.196Z,0.60
2022-12-31T20:05:00.212Z,0.57
2022-12-31T20:07:29.755Z,0.53
2022-12-31T20:09:59.258Z,0.73
2022-12-31T20:12:29.378Z,0.87
2022-12-31T20:14:58.879Z,0.60
2022-12-31T20:17:28.609Z,0.53
2022-12-31T20:20:00.035Z,0.57
2022-12-31T20:22:29.587Z,0.50
2022-12-31T20:24:59.221Z,0.60
2022-12-31T20:27:53.555Z,0.50
2022-12-31T20:30:23.742Z,0.30
2022-12-31T20:32:53.250Z,0.40
2022-12-31T20:35:23.268Z,0.50
2022-12-31T20:37:52.767Z,0.60
2022-12-31T20:40:22.316Z,0.80
2022-12-31T20:42:56.668Z,0.60
2022-12-31T20:45:26.211Z,0.70
2022-12-31T20:47:56.052Z,0.60
2022-12-31T20:50:25.509Z,0.40
2022-12-31T20:52:55.053Z,0.73
2022-12-31T20:55:35.836Z,0.30
2022-12-31T20:58:07.045Z,0.37
2022-12-31T21:00:36.985Z,0.50
2022-12-31T21:04:04.218Z,0.30
2022-12-31T21:06:25.783Z,0.40
2022-12-31T21:09:33.708Z,0.70
2022-12-31T21:12:20.801Z,0.53
2022-12-31T21:14:51.723Z,0.20
2022-12-31T21:17:23.018Z,0.60
2022-12-31T21:19:53.051Z,0.33
2022-12-31T21:22:24.296Z,0.30
2022-12-31T21:24:54.143Z,0.40
2022-12-31T21:27:24.036Z,0.37
2022-12-31T21:30:20.149Z,0.40
2022-12-31T21:32:50.009Z,0.30
2022-12-31T21:38:11.863Z,0.50
2022-12-31T21:40:41.748Z,0.53
2022-12-31T21:43:11.229Z,0.60
2022-12-31T21:46:33.125Z,0.20
2022-12-31T21:49:04.307Z,0.20
2022-12-31T21:51:55.299Z,0.60
2022-12-31T21:54:38.995Z,0.90
2022-12-31T21:57:08.685Z,1.20
2022-12-31T22:00:16.388Z,0.63
2022-12-31T22:03:04.257Z,0.70
2022-12-31T22:05:35.962Z,0.83
2022-12-31T22:08:05.892Z,1.07
2022-12-31T22:10:37.354Z,0.70
2022-12-31T22:13:07.180Z,0.80
2022-12-31T22:15:37.270Z,1.10
2022-12-31T22:18:06.817Z,0.93
2022-12-31T22:20:37.731Z,1.10
2022-12-31T22:23:07.585Z,1.50
2022-12-31T22:25:37.660Z,1.50
2022-12-31T22:28:40.166Z,1.03
2022-12-31T22:31:12.065Z,0.87
2022-12-31T22:33:41.583Z,1.00
2022-12-31T22:36:14.781Z,1.40
2022-12-31T22:38:44.509Z,0.80
2022-12-31T22:41:20.247Z,0.90
2022-12-31T22:44:43.323Z,0.87
2022-12-31T22:47:12.834Z,0.97
2022-12-31T22:49:42.397Z,1.10
2022-12-31T22:52:13.281Z,1.50
2022-12-31T22:54:42.753Z,1.03
2022-12-31T22:57:17.816Z,1.40
2022-12-31T22:59:54.267Z,0.87
2022-12-31T23:02:23.756Z,2.17
2022-12-31T23:04:53.332Z,8.83
2022-12-31T23:07:52.843Z,2.90
2022-12-31T23:10:46.120Z,5.77
2022-12-31T23:13:55.822Z,4.70
2022-12-31T23:16:43.435Z,5.33
2022-12-31T23:19:30.737Z,4.20
2022-12-31T23:22:40.237Z,4.20
2022-12-31T23:25:11.356Z,3.70
2022-12-31T23:27:40.831Z,2.97
2022-12-31T23:30:17.974Z,2.87
2022-12-31T23:32:49.815Z,1.90
2022-12-31T23:35:19.334Z,2.53
2022-12-31T23:37:48.829Z,1.63
2022-12-31T23:40:21.759Z,1.83
2022-12-31T23:42:51.699Z,1.90
2022-12-31T23:45:45.747Z,1.60
2022-12-31T23:48:15.308Z,3.20
2022-12-31T23:50:50.820Z,1.00
2022-12-31T23:53:22.689Z,1.00
2022-12-31T23:55:53.586Z,0.87
2022-12-31T23:58:24.862Z,0.77
